Terminal Aerodrome Forecast
Issued by NWS

Home | Current Version | Previous Version | Text Only | Print | Product List | Glossary On
Versions: 1 2 3 4 5 6 7 8 9 10 11 12 13 14 15 16 17 18 19 20
000
FTUS43 KTOP 190900 AAA
TAFFOE
TAF AMD
KFOE 190929Z 1909/2006 18004KT P6SM OVC080
     FM191200 17003KT 5SM BR OVC050
     FM191900 32011KT P6SM VCTS OVC030CB
     FM192200 33017G28KT P6SM -SHRA VCTS OVC023CB
     FM200200 34017G29KT P6SM OVC050=

USA.gov is the U.S. government's official web portal to all federal, state and local government web resources and services.